Time;durP1;ratioP1;P1;durP2;ratioP2;P2;SDS_P1;SDS_P2;PMS_P1;PMS_P2;Temp;Humidity;BMP_temperature;BMP_pressure;BME280_temperature;BME280_humidity;BME280_pressure;Samples;Min_cycle;Max_cycle;Signal;HPM_P1;HPM_P2
2022/10/23 00:01:26;;;;;;;6.30;3.20;;;14.80;99.90;;;;;;5038312;28;20598;-78
2022/10/23 00:04:06;;;;;;;6.10;3.13;;;14.80;99.90;;;;;;5072174;28;20681;-78
2022/10/23 00:06:35;;;;;;;4.17;3.10;;;14.80;99.90;;;;;;5060011;28;20198;-77
2022/10/23 00:09:04;;;;;;;6.57;3.40;;;14.70;99.90;;;;;;5038717;28;20875;-78
2022/10/23 00:11:33;;;;;;;3.60;2.80;;;14.80;99.90;;;;;;5077871;28;20320;-78
2022/10/23 00:14:02;;;;;;;5.57;2.93;;;14.70;99.90;;;;;;5086496;28;20198;-78
2022/10/23 00:16:30;;;;;;;5.33;3.30;;;14.80;99.90;;;;;;5068254;28;20191;-78
2022/10/23 00:18:56;;;;;;;8.47;3.43;;;14.80;99.90;;;;;;5035190;28;20190;-78
2022/10/23 00:21:24;;;;;;;7.77;3.20;;;14.70;99.90;;;;;;5036475;28;20210;-78
2022/10/23 00:23:50;;;;;;;6.50;2.97;;;14.80;99.90;;;;;;5067214;28;20222;-78
2022/10/23 00:26:18;;;;;;;6.10;3.47;;;14.70;99.90;;;;;;5057552;28;20201;-78
2022/10/23 00:28:51;;;;;;;6.47;3.40;;;14.70;99.90;;;;;;5050411;28;20301;-78
2022/10/23 00:31:20;;;;;;;5.33;2.90;;;14.70;99.90;;;;;;5068023;28;20214;-78
2022/10/23 00:33:47;;;;;;;5.80;3.67;;;14.80;99.90;;;;;;5066157;28;20240;-78
2022/10/23 00:36:16;;;;;;;4.73;3.00;;;14.80;99.90;;;;;;5064168;28;20190;-78
2022/10/23 00:38:43;;;;;;;5.17;3.10;;;14.80;99.90;;;;;;5051077;28;20214;-78
2022/10/23 00:41:23;;;;;;;6.00;3.23;;;14.70;99.90;;;;;;5072593;28;20182;-78
2022/10/23 00:44:17;;;;;;;5.60;3.07;;;14.70;99.90;;;;;;5046819;28;20490;-78
2022/10/23 00:46:45;;;;;;;6.37;3.20;;;14.80;99.90;;;;;;5034668;28;20274;-78
2022/10/23 00:49:12;;;;;;;6.03;3.03;;;14.70;99.90;;;;;;5036462;28;20190;-78
2022/10/23 00:51:45;;;;;;;7.07;2.73;;;14.70;99.90;;;;;;5050125;28;20210;-78
2022/10/23 00:54:15;;;;;;;6.03;3.27;;;14.70;99.90;;;;;;5061633;28;20706;-78
2022/10/23 00:56:44;;;;;;;4.70;2.63;;;14.60;99.90;;;;;;5033361;28;20575;-78
2022/10/23 00:59:11;;;;;;;4.67;3.00;;;14.60;99.90;;;;;;5062391;28;20776;-78
2022/10/23 01:01:37;;;;;;;3.83;2.73;;;14.60;99.90;;;;;;5045333;28;20199;-79
2022/10/23 01:04:06;;;;;;;6.47;2.77;;;14.60;99.90;;;;;;5066458;28;20294;-78
2022/10/23 01:06:41;;;;;;;6.00;3.27;;;14.60;99.90;;;;;;5069327;28;20669;-78
2022/10/23 01:09:38;;;;;;;3.67;2.87;;;14.60;99.90;;;;;;5071720;28;20198;-77
2022/10/23 01:12:31;;;;;;;5.63;3.20;;;14.60;99.90;;;;;;5079896;28;20721;-77
2022/10/23 01:15:28;;;;;;;5.10;2.90;;;14.60;99.90;;;;;;5044895;28;21036;-77
2022/10/23 01:18:08;;;;;;;3.93;2.97;;;14.60;99.90;;;;;;5066523;28;20190;-77
2022/10/23 01:20:54;;;;;;;5.23;3.20;;;14.60;99.90;;;;;;5051341;28;20196;-78
2022/10/23 01:23:32;;;;;;;5.63;2.90;;;14.70;99.90;;;;;;5063470;28;20248;-78
2022/10/23 01:26:38;;;;;;;4.40;3.10;;;14.60;99.90;;;;;;5046032;28;20201;-79
2022/10/23 01:29:22;;;;;;;6.70;2.90;;;14.70;99.90;;;;;;5048629;28;20663;-78
2022/10/23 01:32:11;;;;;;;7.23;3.00;;;14.70;99.90;;;;;;5058992;28;20260;-78
2022/10/23 01:34:57;;;;;;;4.47;2.87;;;14.70;99.90;;;;;;5067655;28;20638;-78
2022/10/23 01:37:38;;;;;;;7.90;2.90;;;14.80;99.90;;;;;;5054344;28;20288;-78
2022/10/23 01:40:36;;;;;;;3.90;2.83;;;14.80;99.90;;;;;;5042299;28;20195;-78
2022/10/23 01:43:15;;;;;;;5.30;2.80;;;14.90;99.90;;;;;;5042089;28;20348;-78
2022/10/23 01:45:57;;;;;;;4.60;2.50;;;14.90;99.90;;;;;;5065876;28;20190;-79
2022/10/23 01:48:29;;;;;;;4.20;2.70;;;15.00;99.90;;;;;;5045636;28;20191;-78
2022/10/23 01:51:02;;;;;;;4.03;2.70;;;15.00;99.90;;;;;;5068672;28;20550;-78
2022/10/23 01:53:37;;;;;;;4.20;2.50;;;15.00;99.90;;;;;;5049696;28;20686;-78
2022/10/23 01:56:10;;;;;;;6.43;3.03;;;15.10;99.90;;;;;;5029241;28;20752;-78
2022/10/23 01:58:38;;;;;;;4.13;2.80;;;15.10;99.90;;;;;;5054177;28;20191;-78
2022/10/23 02:01:07;;;;;;;4.20;2.90;;;15.10;99.90;;;;;;5066285;28;20267;-78
2022/10/23 02:03:37;;;;;;;4.97;3.03;;;15.20;99.90;;;;;;5041920;28;20259;-78
2022/10/23 02:06:04;;;;;;;4.73;3.13;;;15.20;99.90;;;;;;5069121;28;20198;-78
2022/10/23 02:08:31;;;;;;;5.20;2.83;;;15.30;99.90;;;;;;5045965;28;20197;-78
2022/10/23 02:11:20;;;;;;;5.57;3.17;;;15.40;99.90;;;;;;5036586;28;20195;-78
2022/10/23 02:14:15;;;;;;;5.03;2.60;;;15.40;99.90;;;;;;5032365;28;20187;-78
2022/10/23 02:16:53;;;;;;;4.00;3.00;;;15.30;99.90;;;;;;5067191;28;20209;-78
2022/10/23 02:19:28;;;;;;;9.70;3.10;;;15.40;99.90;;;;;;5046926;28;20228;-78
2022/10/23 02:22:09;;;;;;;5.47;3.20;;;15.40;99.90;;;;;;5059980;28;20202;-78
2022/10/23 02:24:53;;;;;;;4.60;3.20;;;15.40;99.90;;;;;;5041163;28;20289;-78
2022/10/23 02:27:36;;;;;;;4.77;3.00;;;15.30;99.90;;;;;;5032335;28;20686;-78
2022/10/23 02:30:24;;;;;;;4.07;3.10;;;15.30;99.90;;;;;;5068921;28;20191;-78
2022/10/23 02:32:54;;;;;;;4.53;3.43;;;15.30;99.90;;;;;;5071208;28;20238;-78
2022/10/23 02:35:23;;;;;;;6.93;3.67;;;15.30;99.90;;;;;;5063991;28;20186;-78
2022/10/23 02:37:59;;;;;;;5.27;3.00;;;15.30;99.90;;;;;;5024087;28;20194;-78
2022/10/23 02:40:45;;;;;;;3.27;2.53;;;15.30;99.90;;;;;;5064575;28;20182;-78
2022/10/23 02:43:31;;;;;;;5.40;2.63;;;15.30;99.90;;;;;;5064538;28;20182;-78
2022/10/23 02:46:46;;;;;;;6.43;2.90;;;15.30;99.90;;;;;;5021724;28;20187;-78
2022/10/23 02:49:26;;;;;;;4.80;3.03;;;15.30;99.90;;;;;;4977177;28;20243;-78
2022/10/23 02:52:10;;;;;;;6.40;3.40;;;15.30;99.90;;;;;;5043270;28;20213;-78
2022/10/23 02:55:00;;;;;;;3.33;2.90;;;15.20;99.90;;;;;;5083273;28;20194;-78
2022/10/23 02:57:34;;;;;;;3.77;2.90;;;15.20;99.90;;;;;;5051181;28;20218;-78
2022/10/23 03:00:17;;;;;;;4.20;2.90;;;15.20;99.90;;;;;;5054786;28;20209;-79
2022/10/23 03:03:12;;;;;;;4.40;3.00;;;15.20;99.90;;;;;;5039471;28;20206;-78
2022/10/23 03:05:41;;;;;;;4.20;3.00;;;15.10;99.90;;;;;;5044977;28;20198;-78
2022/10/23 03:08:13;;;;;;;5.20;3.20;;;15.10;99.90;;;;;;5041226;28;20181;-78
2022/10/23 03:10:41;;;;;;;3.20;2.90;;;15.00;99.90;;;;;;5035798;28;20197;-78
2022/10/23 03:13:10;;;;;;;6.13;3.50;;;15.00;99.90;;;;;;5066279;28;20234;-78
2022/10/23 03:15:37;;;;;;;3.83;3.20;;;15.00;99.90;;;;;;5047180;28;21428;-78
2022/10/23 03:18:04;;;;;;;6.17;3.07;;;14.90;99.90;;;;;;5052715;28;20195;-78
2022/10/23 03:20:30;;;;;;;4.17;2.83;;;14.90;99.90;;;;;;5050633;28;20186;-78
2022/10/23 03:22:56;;;;;;;3.37;3.07;;;14.90;99.90;;;;;;5039642;28;20402;-78
2022/10/23 03:25:24;;;;;;;3.30;2.67;;;14.80;99.90;;;;;;5036981;28;20274;-78
2022/10/23 03:27:50;;;;;;;3.70;3.27;;;14.70;99.90;;;;;;5039441;28;20547;-78
2022/10/23 03:30:17;;;;;;;5.77;3.17;;;14.70;99.90;;;;;;5055200;28;20198;-78
2022/10/23 03:32:43;;;;;;;4.20;3.00;;;14.70;99.90;;;;;;5076779;28;20213;-78
2022/10/23 03:35:09;;;;;;;5.23;3.00;;;14.70;99.90;;;;;;5061654;28;20560;-78
2022/10/23 03:37:36;;;;;;;4.77;3.00;;;14.70;99.90;;;;;;5053294;28;20199;-78
2022/10/23 03:40:05;;;;;;;4.20;2.70;;;14.70;99.90;;;;;;5054914;28;20198;-78
2022/10/23 03:42:35;;;;;;;4.70;2.90;;;14.70;99.90;;;;;;5085404;28;20328;-78
2022/10/23 03:45:01;;;;;;;3.67;3.03;;;14.70;99.90;;;;;;5070409;28;20186;-78
2022/10/23 03:47:29;;;;;;;4.17;3.30;;;14.70;99.90;;;;;;5080364;28;20262;-78
2022/10/23 03:49:55;;;;;;;5.40;2.80;;;14.70;99.90;;;;;;5037585;28;20684;-78
2022/10/23 03:52:21;;;;;;;5.30;2.70;;;14.70;99.90;;;;;;5069140;28;20283;-78
2022/10/23 03:54:48;;;;;;;6.83;2.97;;;14.70;99.90;;;;;;5070664;28;20206;-78
2022/10/23 03:57:15;;;;;;;5.73;2.93;;;14.70;99.90;;;;;;5070962;28;20255;-78
2022/10/23 03:59:41;;;;;;;4.70;2.70;;;14.70;99.90;;;;;;5069603;28;20225;-78
2022/10/23 04:02:07;;;;;;;3.30;2.77;;;14.70;99.90;;;;;;5051334;28;20293;-78
2022/10/23 04:04:33;;;;;;;4.93;2.73;;;14.70;99.90;;;;;;5069137;28;21667;-78
2022/10/23 04:07:00;;;;;;;3.73;2.77;;;14.70;99.90;;;;;;5031017;28;20648;-78
2022/10/23 04:09:26;;;;;;;5.33;3.00;;;14.70;99.90;;;;;;5070192;28;20193;-79
2022/10/23 04:11:55;;;;;;;4.30;3.03;;;14.70;99.90;;;;;;5030991;28;20260;-79
2022/10/23 04:14:22;;;;;;;2.90;2.47;;;14.70;99.90;;;;;;5040550;28;20233;-78
2022/10/23 04:16:49;;;;;;;3.23;2.50;;;14.70;99.90;;;;;;5077043;28;20716;-78
2022/10/23 04:19:16;;;;;;;3.10;2.57;;;14.70;99.90;;;;;;5069518;28;20200;-78
2022/10/23 04:21:43;;;;;;;3.77;2.30;;;14.70;99.90;;;;;;5053466;28;20289;-78
2022/10/23 04:24:09;;;;;;;3.77;2.60;;;14.80;99.90;;;;;;5071450;28;20217;-78
2022/10/23 04:26:35;;;;;;;3.27;2.70;;;14.70;99.90;;;;;;5052386;28;20656;-78
2022/10/23 04:29:02;;;;;;;6.43;2.80;;;14.70;99.90;;;;;;5065475;28;20266;-78
2022/10/23 04:31:28;;;;;;;3.70;2.50;;;14.70;99.90;;;;;;5041987;28;20205;-78
2022/10/23 04:33:54;;;;;;;3.17;2.40;;;14.70;99.90;;;;;;5035948;28;20575;-78
2022/10/23 04:36:21;;;;;;;4.63;2.60;;;14.70;99.90;;;;;;5064513;28;21045;-78
2022/10/23 04:38:47;;;;;;;3.37;2.50;;;14.70;99.90;;;;;;5053630;28;20191;-78
2022/10/23 04:41:13;;;;;;;2.87;2.30;;;14.70;99.90;;;;;;5058328;28;20478;-78
2022/10/23 04:43:40;;;;;;;6.33;2.77;;;14.70;99.90;;;;;;5060814;28;20259;-78
2022/10/23 04:46:07;;;;;;;4.03;2.43;;;14.60;99.90;;;;;;5034641;28;20194;-78
2022/10/23 04:48:33;;;;;;;3.47;2.30;;;14.60;99.90;;;;;;5071721;28;20205;-78
2022/10/23 04:51:04;;;;;;;4.97;2.50;;;14.50;99.90;;;;;;5038391;28;20197;-78
2022/10/23 04:53:33;;;;;;;2.70;2.10;;;14.40;99.90;;;;;;5077943;28;20224;-78
2022/10/23 04:56:00;;;;;;;2.40;1.83;;;14.40;99.90;;;;;;5048640;28;20272;-79
2022/10/23 04:58:28;;;;;;;5.50;2.37;;;14.40;99.90;;;;;;5045162;28;20194;-78
2022/10/23 05:00:55;;;;;;;3.70;2.20;;;14.40;99.90;;;;;;5075620;28;20217;-78
2022/10/23 05:03:25;;;;;;;4.60;2.10;;;14.50;99.90;;;;;;5073321;28;20277;-78
2022/10/23 05:05:55;;;;;;;4.43;2.30;;;14.50;99.90;;;;;;5072229;28;22288;-78
2022/10/23 05:08:22;;;;;;;3.17;2.37;;;14.40;99.90;;;;;;5063064;28;20278;-78
2022/10/23 05:10:49;;;;;;;10.47;2.80;;;14.40;99.90;;;;;;5053094;28;20734;-78
2022/10/23 05:13:18;;;;;;;6.40;3.40;;;14.40;99.90;;;;;;5058845;28;20565;-78
2022/10/23 05:15:50;;;;;;;4.17;2.47;;;14.40;99.90;;;;;;5053100;28;20211;-78
2022/10/23 05:18:28;;;;;;;4.07;2.20;;;14.40;99.90;;;;;;5050102;28;20182;-78
2022/10/23 05:21:09;;;;;;;5.00;2.17;;;14.50;99.90;;;;;;5034026;28;20210;-78
2022/10/23 05:23:38;;;;;;;4.23;2.30;;;14.50;99.90;;;;;;5072787;28;20186;-78
2022/10/23 05:26:06;;;;;;;3.83;2.47;;;14.60;99.90;;;;;;5067880;28;20214;-78
2022/10/23 05:28:32;;;;;;;4.53;2.30;;;14.70;99.90;;;;;;5086958;28;20273;-78
2022/10/23 05:31:03;;;;;;;3.67;2.50;;;14.70;99.90;;;;;;5069626;28;20179;-78
2022/10/23 05:33:31;;;;;;;3.43;2.40;;;14.80;99.90;;;;;;5069490;28;20270;-78
2022/10/23 05:35:59;;;;;;;5.87;2.23;;;14.90;99.90;;;;;;5026280;28;20619;-78
2022/10/23 05:38:29;;;;;;;7.23;2.67;;;15.00;99.90;;;;;;5045514;28;20297;-78
2022/10/23 05:40:55;;;;;;;6.50;2.77;;;15.00;99.90;;;;;;5052059;28;20200;-78
2022/10/23 05:43:21;;;;;;;2.83;2.57;;;15.10;99.90;;;;;;5050427;28;20277;-78
2022/10/23 05:45:48;;;;;;;4.63;2.70;;;15.20;99.90;;;;;;5055808;28;20194;-78
2022/10/23 05:48:15;;;;;;;5.33;2.50;;;15.20;99.90;;;;;;5065367;28;20205;-78
2022/10/23 05:50:45;;;;;;;4.93;2.60;;;15.20;99.90;;;;;;5029966;28;20282;-78
2022/10/23 05:53:11;;;;;;;4.73;2.77;;;15.20;99.90;;;;;;5063284;28;20554;-78
2022/10/23 05:55:38;;;;;;;3.73;2.80;;;15.30;99.90;;;;;;5050094;28;20191;-78
2022/10/23 05:58:05;;;;;;;5.33;2.93;;;15.30;99.90;;;;;;5073284;28;20187;-78
2022/10/23 06:00:31;;;;;;;6.17;2.80;;;15.40;99.90;;;;;;5068434;28;20285;-78
2022/10/23 06:03:01;;;;;;;3.93;3.20;;;15.40;99.90;;;;;;5038692;28;20190;-78
2022/10/23 06:05:28;;;;;;;4.20;3.20;;;15.50;99.90;;;;;;5067262;28;20195;-78
2022/10/23 06:07:58;;;;;;;6.53;3.27;;;15.50;99.90;;;;;;5047875;28;20199;-78
2022/10/23 06:10:26;;;;;;;4.10;3.30;;;15.50;99.90;;;;;;5028186;28;20659;-78
2022/10/23 06:12:52;;;;;;;5.07;3.23;;;15.50;99.90;;;;;;5048291;28;20213;-78
2022/10/23 06:15:18;;;;;;;6.63;3.17;;;15.60;99.90;;;;;;5065322;28;20256;-78
2022/10/23 06:17:45;;;;;;;5.80;2.90;;;15.60;99.90;;;;;;5065701;28;20582;-78
2022/10/23 06:20:11;;;;;;;3.40;2.70;;;15.60;99.90;;;;;;5053732;28;20994;-78
2022/10/23 06:22:38;;;;;;;6.37;3.27;;;15.70;99.90;;;;;;5049549;28;20211;-78
2022/10/23 06:25:05;;;;;;;4.37;2.80;;;15.80;99.90;;;;;;5057336;28;20203;-78
2022/10/23 06:27:31;;;;;;;3.47;2.80;;;15.80;99.90;;;;;;5067408;28;20603;-78
2022/10/23 06:29:57;;;;;;;5.20;2.73;;;15.80;99.90;;;;;;5065494;28;20618;-78
2022/10/23 06:32:23;;;;;;;4.20;2.50;;;15.80;99.90;;;;;;5044087;28;20365;-78
2022/10/23 06:34:50;;;;;;;4.37;2.80;;;15.90;99.90;;;;;;5052237;28;20537;-78
2022/10/23 06:37:16;;;;;;;6.40;3.00;;;15.90;99.90;;;;;;5035991;28;20186;-78
2022/10/23 06:39:43;;;;;;;3.70;2.50;;;16.00;99.90;;;;;;5064569;28;20194;-78
2022/10/23 06:42:10;;;;;;;8.07;2.93;;;16.00;99.90;;;;;;5060386;28;20191;-78
2022/10/23 06:44:37;;;;;;;7.87;3.00;;;16.10;99.90;;;;;;5035238;28;20186;-78
2022/10/23 06:47:04;;;;;;;4.40;2.50;;;16.10;99.90;;;;;;5057568;28;20658;-78
2022/10/23 06:49:30;;;;;;;5.50;2.40;;;16.20;99.90;;;;;;5048664;28;21279;-78
2022/10/23 06:51:56;;;;;;;3.87;2.70;;;16.30;99.90;;;;;;5040649;28;20580;-78
2022/10/23 06:54:23;;;;;;;3.97;2.53;;;16.30;99.90;;;;;;5043311;28;20201;-78
2022/10/23 06:56:50;;;;;;;7.37;2.80;;;16.40;99.90;;;;;;5053105;28;20190;-78
2022/10/23 06:59:16;;;;;;;6.47;2.60;;;16.40;99.90;;;;;;5051001;28;20609;-78
2022/10/23 07:01:42;;;;;;;5.93;3.00;;;16.40;99.90;;;;;;5076810;28;20186;-78
2022/10/23 07:04:08;;;;;;;5.63;2.90;;;16.60;99.90;;;;;;5080794;28;20190;-78
2022/10/23 07:06:35;;;;;;;4.60;3.40;;;16.70;99.90;;;;;;5065228;28;20201;-78
2022/10/23 07:09:01;;;;;;;4.60;2.80;;;16.80;99.90;;;;;;5066867;28;20394;-78
2022/10/23 07:11:28;;;;;;;4.07;2.60;;;16.90;99.90;;;;;;5071686;28;21187;-78
2022/10/23 07:13:54;;;;;;;4.20;2.60;;;16.90;99.90;;;;;;5027271;28;20199;-78
2022/10/23 07:16:23;;;;;;;4.60;2.97;;;16.90;99.90;;;;;;5049280;28;20252;-79
2022/10/23 07:18:59;;;;;;;5.20;3.63;;;16.90;99.90;;;;;;5066521;28;20187;-78
2022/10/23 07:21:30;;;;;;;8.87;3.10;;;17.00;99.90;;;;;;5067921;28;20722;-78
2022/10/23 07:23:57;;;;;;;6.13;2.50;;;17.00;99.90;;;;;;5052137;28;20191;-78
2022/10/23 07:26:24;;;;;;;4.67;2.73;;;17.00;99.90;;;;;;5039767;28;21844;-78
2022/10/23 07:28:53;;;;;;;5.93;3.63;;;17.10;99.90;;;;;;5030400;28;20207;-78
2022/10/23 07:31:22;;;;;;;5.03;3.03;;;17.20;99.90;;;;;;5085116;28;20714;-78
2022/10/23 07:33:49;;;;;;;9.00;3.57;;;17.30;99.90;;;;;;5040508;28;20588;-79
2022/10/23 07:36:18;;;;;;;8.53;3.63;;;17.30;99.90;;;;;;5065149;28;20197;-78
2022/10/23 07:38:47;;;;;;;3.73;2.77;;;17.40;99.90;;;;;;5053974;28;20546;-79
2022/10/23 07:41:16;;;;;;;6.73;3.10;;;17.60;99.90;;;;;;5025307;28;20240;-78
2022/10/23 07:43:42;;;;;;;6.43;3.10;;;17.70;99.90;;;;;;5041499;28;20213;-79
2022/10/23 07:46:09;;;;;;;4.60;2.40;;;17.70;99.90;;;;;;5046115;28;20789;-79
2022/10/23 07:48:37;;;;;;;5.43;2.77;;;17.80;99.90;;;;;;5066074;28;20183;-79
2022/10/23 07:51:14;;;;;;;5.20;2.70;;;17.90;99.90;;;;;;5049784;28;20265;-80
2022/10/23 07:53:41;;;;;;;6.20;2.40;;;18.00;99.90;;;;;;5063298;28;20269;-79
2022/10/23 07:56:21;;;;;;;4.90;2.63;;;18.00;99.90;;;;;;5065237;28;20198;-79
2022/10/23 07:58:47;;;;;;;3.03;2.40;;;18.20;99.90;;;;;;5065070;28;20191;-78
2022/10/23 08:01:33;;;;;;;5.90;2.30;;;18.30;99.90;;;;;;5051628;28;20666;-79
2022/10/23 08:04:00;;;;;;;4.27;2.70;;;18.30;99.90;;;;;;5055190;28;20270;-79
2022/10/23 08:06:27;;;;;;;3.83;2.30;;;18.30;99.90;;;;;;5046454;28;20271;-79
2022/10/23 08:08:54;;;;;;;3.50;2.30;;;18.40;99.90;;;;;;5046760;28;20199;-78
2022/10/23 08:11:26;;;;;;;5.27;2.57;;;18.60;99.90;;;;;;5062923;28;20296;-78
2022/10/23 08:13:57;;;;;;;3.67;2.60;;;18.50;99.90;;;;;;5023567;28;20191;-78
2022/10/23 08:16:24;;;;;;;8.30;2.60;;;18.40;99.90;;;;;;5031651;28;20187;-78
2022/10/23 08:18:52;;;;;;;5.63;2.63;;;18.40;99.90;;;;;;5058783;28;20198;-79
2022/10/23 08:21:20;;;;;;;3.23;2.63;;;18.50;99.90;;;;;;5052967;28;20194;-78
2022/10/23 08:23:47;;;;;;;2.40;2.07;;;18.70;99.90;;;;;;5070773;28;20205;-78
2022/10/23 08:26:15;;;;;;;4.37;2.50;;;18.70;99.90;;;;;;5076488;28;20191;-78
2022/10/23 08:28:42;;;;;;;4.73;2.70;;;18.70;99.90;;;;;;5035055;28;20233;-79
2022/10/23 08:31:11;;;;;;;3.43;2.27;;;18.70;99.90;;;;;;5052261;28;20674;-78
2022/10/23 08:33:39;;;;;;;4.00;2.27;;;18.80;99.90;;;;;;5064453;28;20560;-79
2022/10/23 08:36:27;;;;;;;4.93;2.40;;;18.80;99.90;;;;;;5037388;28;20202;-78
2022/10/23 08:38:57;;;;;;;4.90;2.20;;;18.90;99.90;;;;;;5033774;28;20192;-78
2022/10/23 08:41:36;;;;;;;12.83;2.73;;;19.30;99.90;;;;;;5081540;28;20186;-78
2022/10/23 08:44:21;;;;;;;11.60;2.73;;;19.40;99.90;;;;;;5041400;28;20175;-78
2022/10/23 08:47:01;;;;;;;8.03;2.50;;;19.40;99.90;;;;;;5050316;28;20905;-78
2022/10/23 08:49:42;;;;;;;8.20;2.63;;;19.40;99.90;;;;;;5034214;28;20190;-78
2022/10/23 08:53:01;;;;;;;4.50;2.57;;;19.50;99.90;;;;;;5065778;28;20217;-78
2022/10/23 08:55:35;;;;;;;3.70;2.20;;;19.60;99.90;;;;;;5034112;28;20663;-78
2022/10/23 08:58:19;;;;;;;5.03;2.43;;;19.80;99.90;;;;;;5048490;28;20331;-78
2022/10/23 09:00:48;;;;;;;4.43;2.40;;;19.90;99.90;;;;;;5043442;28;20322;-78
2022/10/23 09:03:15;;;;;;;3.67;2.10;;;20.00;99.90;;;;;;5076225;28;20187;-78
2022/10/23 09:05:54;;;;;;;3.73;2.37;;;20.10;99.90;;;;;;5060446;28;20206;-78
2022/10/23 09:08:59;;;;;;;4.20;2.50;;;20.20;99.90;;;;;;5048370;28;20201;-78
2022/10/23 09:11:47;;;;;;;3.03;2.37;;;20.20;99.90;;;;;;5016894;28;20255;-78
2022/10/23 09:14:52;;;;;;;6.27;2.40;;;20.30;99.90;;;;;;5066855;28;20194;-78
2022/10/23 09:17:38;;;;;;;5.30;2.47;;;20.40;99.90;;;;;;5077249;28;20178;-78
2022/10/23 09:20:15;;;;;;;3.73;2.57;;;20.30;99.90;;;;;;5057502;28;20688;-78
2022/10/23 09:22:43;;;;;;;3.90;2.37;;;20.40;99.90;;;;;;5033919;28;20195;-78
2022/10/23 09:25:17;;;;;;;10.43;2.73;;;20.50;99.90;;;;;;5028531;28;20651;-77
2022/10/23 09:27:53;;;;;;;7.03;2.50;;;20.60;99.90;;;;;;5052077;28;20205;-78
2022/10/23 09:30:32;;;;;;;3.10;2.00;;;20.70;99.90;;;;;;5062489;28;20201;-78
2022/10/23 09:33:12;;;;;;;4.60;2.30;;;21.00;99.90;;;;;;5021495;28;20736;-79
2022/10/23 09:35:49;;;;;;;4.80;2.40;;;20.90;99.90;;;;;;5030608;28;20278;-78
2022/10/23 09:38:47;;;;;;;7.53;2.70;;;20.80;99.90;;;;;;5011232;28;20194;-78
2022/10/23 09:41:16;;;;;;;9.15;2.60;;;20.90;99.90;;;;;;5050690;28;20771;-78
2022/10/23 09:43:43;;;;;;;5.07;2.40;;;21.10;99.90;;;;;;5078553;28;20187;-78
2022/10/23 09:46:10;;;;;;;5.72;2.33;;;21.00;99.90;;;;;;5043987;28;20187;-78
2022/10/23 09:48:41;;;;;;;5.78;2.35;;;21.00;99.90;;;;;;5033840;28;20183;-78
2022/10/23 09:51:20;;;;;;;8.07;2.40;;;21.20;99.90;;;;;;5050424;28;20263;-78
2022/10/23 09:53:58;;;;;;;3.53;2.13;;;21.20;99.90;;;;;;5039141;28;20205;-78
2022/10/23 09:56:35;;;;;;;3.80;2.35;;;21.30;99.90;;;;;;5038868;28;20182;-78
2022/10/23 09:59:10;;;;;;;4.05;2.72;;;21.40;99.90;;;;;;5082642;28;20174;-77
2022/10/23 10:01:55;;;;;;;4.70;2.30;;;21.50;99.90;;;;;;5074361;28;20186;-77
2022/10/23 10:04:36;;;;;;;10.93;2.58;;;21.60;99.90;;;;;;5068087;28;20255;-78
2022/10/23 10:07:16;;;;;;;5.75;2.60;;;21.70;99.90;;;;;;5033446;28;20183;-78
2022/10/23 10:09:42;;;;;;;6.00;2.50;;;21.80;99.90;;;;;;5050308;28;20643;-78
2022/10/23 10:12:24;;;;;;;6.07;2.60;;;21.90;99.90;;;;;;5065935;28;20327;-78
2022/10/23 10:15:07;;;;;;;7.18;2.42;;;21.90;99.90;;;;;;5054453;28;20182;-78
2022/10/23 10:17:56;;;;;;;6.15;2.90;;;22.10;99.90;;;;;;5029425;28;20248;-77
2022/10/23 10:20:56;;;;;;;7.85;2.75;;;22.30;99.90;;;;;;5049416;28;20186;-78
2022/10/23 10:23:52;;;;;;;3.97;2.55;;;22.80;99.90;;;;;;5063930;28;20186;-78
2022/10/23 10:26:41;;;;;;;3.03;2.28;;;24.50;99.90;;;;;;5041732;28;20186;-77
2022/10/23 10:30:09;;;;;;;6.65;2.53;;;27.10;99.90;;;;;;5035452;28;20191;-77
2022/10/23 10:33:08;;;;;;;9.15;2.53;;;26.60;99.90;;;;;;5003582;28;20330;-78
2022/10/23 10:35:42;;;;;;;7.38;2.40;;;25.70;99.90;;;;;;5003975;28;20177;-78
2022/10/23 10:38:53;;;;;;;7.53;2.67;;;24.90;99.90;;;;;;5043352;28;20324;-78
2022/10/23 10:42:02;;;;;;;7.50;2.65;;;24.40;99.90;;;;;;5046081;28;20582;-77
2022/10/23 10:45:11;;;;;;;4.60;2.47;;;24.10;99.90;;;;;;5034010;28;20190;-78
2022/10/23 10:51:58;;;;;;;6.07;2.33;;;24.30;99.90;;;;;;5056790;28;20191;-77
2022/10/23 10:54:42;;;;;;;5.70;2.53;;;25.60;99.90;;;;;;5069963;28;20225;-77
2022/10/23 10:57:44;;;;;;;5.75;2.55;;;25.40;99.90;;;;;;5053467;28;20186;-78
2022/10/23 11:00:18;;;;;;;6.93;2.50;;;23.80;99.90;;;;;;5066561;28;20179;-78
2022/10/23 11:03:27;;;;;;;11.13;2.97;;;23.20;99.90;;;;;;5064422;28;20182;-78
2022/10/23 11:05:59;;;;;;;8.45;2.92;;;23.10;99.90;;;;;;5082510;28;20175;-78
2022/10/23 11:08:35;;;;;;;7.82;2.53;;;22.90;99.90;;;;;;5049744;28;20335;-78
2022/10/23 11:11:20;;;;;;;4.97;2.33;;;22.90;99.90;;;;;;5031273;28;20782;-78
2022/10/23 11:13:50;;;;;;;3.33;2.45;;;22.90;99.90;;;;;;5044772;28;20237;-78
2022/10/23 11:16:34;;;;;;;6.80;2.65;;;22.90;99.90;;;;;;5069256;28;20705;-78
2022/10/23 11:19:29;;;;;;;5.15;2.60;;;22.90;99.90;;;;;;5049409;28;20210;-79
2022/10/23 11:22:32;;;;;;;10.05;2.58;;;23.00;99.90;;;;;;5044696;28;20212;-78
2022/10/23 11:25:14;;;;;;;4.80;2.50;;;22.90;99.90;;;;;;5046535;28;20644;-78
2022/10/23 11:28:02;;;;;;;6.75;2.30;;;22.80;99.90;;;;;;5047959;28;20272;-78
2022/10/23 11:31:05;;;;;;;5.82;2.90;;;22.80;99.90;;;;;;5064519;28;20281;-78
2022/10/23 11:33:50;;;;;;;5.25;2.72;;;22.80;99.90;;;;;;5046502;28;20199;-78
2022/10/23 11:36:52;;;;;;;8.90;2.70;;;22.80;99.90;;;;;;5035517;28;20624;-78
2022/10/23 11:39:34;;;;;;;4.45;2.80;;;22.80;99.90;;;;;;5044359;28;20633;-78
2022/10/23 11:42:38;;;;;;;3.55;2.67;;;22.80;99.90;;;;;;5045307;28;20527;-78
2022/10/23 11:45:39;;;;;;;6.80;2.67;;;22.80;99.90;;;;;;5028627;28;20203;-78
2022/10/23 11:48:22;;;;;;;8.40;2.97;;;22.80;99.90;;;;;;5047094;28;20278;-78
2022/10/23 11:50:52;;;;;;;7.57;2.78;;;22.80;99.90;;;;;;5055936;28;20185;-78
2022/10/23 11:53:39;;;;;;;6.13;2.50;;;22.80;99.90;;;;;;5080474;28;20210;-78
2022/10/23 11:56:11;;;;;;;5.05;2.50;;;22.70;99.90;;;;;;5069867;28;20178;-78
2022/10/23 11:58:51;;;;;;;4.20;2.42;;;22.70;99.90;;;;;;5060827;28;20194;-78
2022/10/23 12:01:38;;;;;;;6.85;2.60;;;22.70;99.90;;;;;;5059136;28;20293;-78
2022/10/23 12:04:21;;;;;;;4.65;2.88;;;22.60;99.90;;;;;;5042813;28;20182;-78
2022/10/23 12:07:16;;;;;;;5.53;2.78;;;22.50;99.90;;;;;;5032802;28;20245;-78
2022/10/23 12:09:51;;;;;;;6.22;2.90;;;22.50;99.90;;;;;;5042733;28;20267;-78
2022/10/23 12:12:39;;;;;;;6.95;2.67;;;22.50;99.90;;;;;;5048879;28;20210;-78
2022/10/23 12:15:18;;;;;;;6.95;2.80;;;22.50;99.90;;;;;;5053074;28;20183;-78
2022/10/23 12:17:48;;;;;;;8.05;2.67;;;22.50;99.90;;;;;;5046633;28;20301;-78
2022/10/23 12:20:24;;;;;;;4.85;2.70;;;22.50;99.90;;;;;;5041071;28;20271;-78
2022/10/23 12:23:01;;;;;;;4.87;2.50;;;22.50;99.90;;;;;;5068400;28;20208;-78
2022/10/23 12:26:06;;;;;;;7.43;2.63;;;22.50;99.90;;;;;;5068082;28;21059;-79
2022/10/23 12:28:56;;;;;;;9.30;3.03;;;22.50;99.90;;;;;;5013509;28;20658;-78
2022/10/23 12:31:41;;;;;;;10.15;3.10;;;22.60;99.90;;;;;;5051458;28;20281;-78
2022/10/23 12:35:05;;;;;;;10.70;2.70;;;22.40;99.90;;;;;;5047265;28;20633;-78
2022/10/23 12:38:13;;;;;;;5.20;2.75;;;22.30;99.90;;;;;;5088684;28;20186;-78
2022/10/23 12:40:49;;;;;;;3.60;2.88;;;22.40;99.90;;;;;;5048142;28;20589;-78
2022/10/23 12:43:31;;;;;;;8.75;3.58;;;22.30;99.90;;;;;;5058307;28;20187;-78
2022/10/23 12:46:33;;;;;;;9.35;3.10;;;22.20;99.90;;;;;;5061624;28;20183;-78
2022/10/23 12:49:03;;;;;;;6.65;3.22;;;22.20;99.90;;;;;;5039372;28;20864;-78
2022/10/23 12:51:34;;;;;;;8.77;3.00;;;22.10;99.90;;;;;;5035165;28;20182;-78
2022/10/23 12:54:02;;;;;;;6.00;2.60;;;22.00;99.90;;;;;;5049558;28;20183;-78
2022/10/23 12:56:35;;;;;;;6.13;2.90;;;22.00;99.90;;;;;;5058451;28;20187;-78
2022/10/23 12:59:09;;;;;;;6.10;2.90;;;21.90;99.90;;;;;;5073844;28;20186;-78
2022/10/23 13:01:35;;;;;;;5.82;2.78;;;21.90;99.90;;;;;;5046349;28;20178;-78
2022/10/23 13:04:30;;;;;;;3.88;2.60;;;21.90;99.90;;;;;;5039686;28;20261;-78
2022/10/23 13:07:01;;;;;;;5.23;2.90;;;21.80;99.90;;;;;;5034843;28;20179;-78
2022/10/23 13:09:32;;;;;;;8.07;3.60;;;21.70;99.90;;;;;;5034450;28;20183;-78
2022/10/23 13:12:03;;;;;;;7.85;3.00;;;21.70;99.90;;;;;;5050771;28;20523;-78
2022/10/23 13:14:41;;;;;;;6.47;3.20;;;21.60;99.90;;;;;;5050085;28;20261;-78
2022/10/23 13:17:11;;;;;;;4.30;2.72;;;21.60;99.90;;;;;;5061467;28;20205;-78
2022/10/23 13:19:39;;;;;;;7.57;3.10;;;21.60;99.90;;;;;;5032560;28;20187;-78
2022/10/23 13:22:22;;;;;;;9.38;2.90;;;21.50;99.90;;;;;;5067778;28;20278;-78
2022/10/23 13:24:48;;;;;;;5.13;2.63;;;21.50;99.90;;;;;;5031391;28;20639;-78
2022/10/23 13:27:33;;;;;;;6.30;2.87;;;21.40;99.90;;;;;;5044193;28;20275;-78
2022/10/23 13:29:59;;;;;;;5.53;2.80;;;21.40;99.90;;;;;;5040598;28;20658;-78
2022/10/23 13:32:29;;;;;;;6.60;2.90;;;21.30;99.90;;;;;;5033844;28;20217;-78